createdAt,value
2019-05-06T00:01:08.935Z,93912.79
2019-05-06T00:03:37.469Z,93910.39
2019-05-06T00:06:04.117Z,93903.70
2019-05-06T00:08:30.754Z,93895.03
2019-05-06T00:10:57.409Z,93902.73
2019-05-06T00:13:24.264Z,93898.52
2019-05-06T00:15:50.693Z,93902.90
2019-05-06T00:18:17.356Z,93901.61
2019-05-06T00:20:44.020Z,93895.59
2019-05-06T00:23:10.703Z,93892.09
2019-05-06T00:25:37.397Z,93896.84
2019-05-06T00:28:06.044Z,93894.47
2019-05-06T00:30:30.751Z,93886.36
2019-05-06T00:32:57.387Z,93886.06
2019-05-06T00:35:24.079Z,93893.19
2019-05-06T00:37:50.720Z,93897.81
2019-05-06T00:40:17.405Z,93902.02
2019-05-06T00:42:44.560Z,93900.83
2019-05-06T00:47:37.366Z,93899.59
2019-05-06T00:50:04.291Z,93906.92
2019-05-06T00:52:30.648Z,93897.59
2019-05-06T00:54:57.290Z,93897.59
2019-05-06T00:57:23.942Z,93895.92
2019-05-06T00:59:50.622Z,93896.27
2019-05-06T01:02:17.272Z,93890.47
2019-05-06T01:04:44.604Z,93889.99
2019-05-06T01:07:10.592Z,93887.41
2019-05-06T01:09:37.275Z,93887.22
2019-05-06T01:12:03.908Z,93891.20
2019-05-06T01:14:30.559Z,93890.34
2019-05-06T01:16:57.201Z,93896.31
2019-05-06T01:19:23.843Z,93889.06
2019-05-06T01:21:50.481Z,93886.77
2019-05-06T01:24:17.159Z,93898.45
2019-05-06T01:26:44.306Z,93895.01
2019-05-06T01:29:10.476Z,93893.06
2019-05-06T01:31:42.651Z,93902.21
2019-05-06T01:34:04.882Z,93895.27
2019-05-06T01:36:31.584Z,93892.31
2019-05-06T01:38:58.216Z,93886.69
2019-05-06T01:41:24.888Z,93894.08
2019-05-06T01:43:51.529Z,93883.78
2019-05-06T01:46:18.202Z,93885.09
2019-05-06T01:48:44.860Z,93882.56
2019-05-06T01:51:11.495Z,93900.98
2019-05-06T01:53:38.144Z,93901.54
2019-05-06T01:56:04.772Z,93906.88
2019-05-06T01:58:33.442Z,93908.10
2019-05-06T02:00:58.080Z,93898.88
2019-05-06T02:03:24.718Z,93906.84
2019-05-06T02:08:18.048Z,93897.86
2019-05-06T02:10:44.676Z,93894.82
2019-05-06T02:13:11.387Z,93896.61
2019-05-06T02:15:38.027Z,93905.19
2019-05-06T02:18:04.662Z,93897.11
2019-05-06T02:20:31.360Z,93894.80
2019-05-06T02:22:57.997Z,93895.35
2019-05-06T02:25:24.676Z,93891.54
2019-05-06T02:27:54.306Z,93893.41
2019-05-06T02:30:20.870Z,93893.00
2019-05-06T02:32:47.496Z,93896.71
2019-05-06T02:35:14.900Z,93894.39
2019-05-06T02:37:40.845Z,93892.70
2019-05-06T02:40:07.527Z,93895.56
2019-05-06T02:42:34.170Z,93897.80
2019-05-06T02:45:03.698Z,93891.17
2019-05-06T02:47:27.527Z,93895.48
2019-05-06T02:49:54.196Z,93895.72
2019-05-06T02:52:22.960Z,93893.53
2019-05-06T02:54:47.518Z,93894.70
2019-05-06T02:57:14.169Z,93900.89
2019-05-06T02:59:43.930Z,93903.09
2019-05-06T03:02:07.483Z,93901.67
2019-05-06T03:04:34.176Z,93902.24
2019-05-06T03:07:03.753Z,93901.98
2019-05-06T03:09:27.528Z,93906.95
2019-05-06T03:11:54.310Z,93912.77
2019-05-06T03:14:23.406Z,93920.81
2019-05-06T03:16:47.477Z,93921.98
2019-05-06T03:19:14.173Z,93908.58
2019-05-06T03:21:44.493Z,93904.31
2019-05-06T03:24:07.601Z,93905.05
2019-05-06T03:26:34.151Z,93909.29
2019-05-06T03:29:02.881Z,93910.37
2019-05-06T03:31:27.478Z,93914.00
2019-05-06T03:34:16.255Z,93922.88
2019-05-06T03:36:27.148Z,93922.77
2019-05-06T03:38:47.405Z,93930.30
2019-05-06T03:41:14.184Z,93924.53
2019-05-06T03:43:43.232Z,93933.97
2019-05-06T03:46:07.324Z,93933.41
2019-05-06T03:48:33.958Z,93929.77
2019-05-06T03:51:03.832Z,93929.77
2019-05-06T03:53:27.269Z,93931.98
2019-05-06T03:55:54.181Z,93937.52
2019-05-06T03:58:23.574Z,93936.85
2019-05-06T04:00:47.281Z,93938.91
2019-05-06T04:03:14.209Z,93932.21
2019-05-06T04:05:43.576Z,93932.77
2019-05-06T04:08:07.320Z,93938.12
2019-05-06T04:10:37.001Z,93930.98
2019-05-06T04:13:03.908Z,93931.30
2019-05-06T04:15:27.395Z,93920.90
2019-05-06T04:17:54.283Z,93932.21
2019-05-06T04:20:23.401Z,93934.61
2019-05-06T04:22:47.331Z,93937.86
2019-05-06T04:25:14.145Z,93940.63
2019-05-06T04:27:42.953Z,93941.68
2019-05-06T04:30:07.258Z,93937.48
2019-05-06T04:32:34.243Z,93932.84
2019-05-06T04:37:27.215Z,93932.73
2019-05-06T04:39:53.916Z,93928.42
2019-05-06T04:42:23.258Z,93924.16
2019-05-06T04:44:47.185Z,93922.80
2019-05-06T04:47:14.879Z,93924.91
2019-05-06T04:49:43.450Z,93928.36
2019-05-06T04:52:07.255Z,93929.97
2019-05-06T04:54:33.941Z,93932.28
2019-05-06T04:57:00.544Z,93930.19
2019-05-06T04:59:27.184Z,93923.75
2019-05-06T05:01:53.827Z,93931.72
2019-05-06T05:04:28.364Z,93926.89
2019-05-06T05:06:47.159Z,93928.53
2019-05-06T05:09:17.083Z,93925.34
2019-05-06T05:11:42.549Z,93934.22
2019-05-06T05:14:07.205Z,93943.58
2019-05-06T05:16:33.834Z,93940.36
2019-05-06T05:19:02.638Z,93945.61
2019-05-06T05:21:27.141Z,93935.27
2019-05-06T05:23:53.814Z,93945.83
2019-05-06T05:26:22.402Z,93954.25
2019-05-06T05:28:47.151Z,93954.81
2019-05-06T05:31:13.795Z,93955.19
2019-05-06T05:33:42.150Z,93944.29
2019-05-06T05:36:07.127Z,93951.70
2019-05-06T05:38:33.770Z,93952.00
2019-05-06T05:41:00.412Z,93962.45
2019-05-06T05:43:27.056Z,93952.08
2019-05-06T05:45:53.702Z,93948.59
2019-05-06T05:48:20.383Z,93937.12
2019-05-06T05:50:47.061Z,93935.52
2019-05-06T05:53:13.717Z,93939.52
2019-05-06T05:55:42.298Z,93934.54
2019-05-06T05:58:07.067Z,93940.05
2019-05-06T06:00:33.703Z,93933.41
2019-05-06T06:03:00.344Z,93938.67
2019-05-06T06:05:27.010Z,93935.84
2019-05-06T06:07:53.700Z,93936.91
2019-05-06T06:10:22.470Z,93936.48
2019-05-06T06:12:46.972Z,93935.92
2019-05-06T06:15:13.652Z,93927.80
2019-05-06T06:17:40.296Z,93932.52
2019-05-06T06:20:06.981Z,93936.94
2019-05-06T06:22:33.677Z,93935.88
2019-05-06T06:25:00.325Z,93934.73
2019-05-06T06:27:26.964Z,93926.70
2019-05-06T06:32:20.247Z,93933.11
2019-05-06T06:34:46.885Z,93941.67
2019-05-06T06:37:13.560Z,93941.22
2019-05-06T06:39:42.190Z,93942.20
2019-05-06T06:42:06.947Z,93938.52
2019-05-06T06:44:33.597Z,93939.75
2019-05-06T06:47:02.075Z,93946.69
2019-05-06T06:49:26.922Z,93940.93
2019-05-06T06:51:53.566Z,93934.41
2019-05-06T06:54:20.268Z,93930.30
2019-05-06T06:56:46.907Z,93926.61
2019-05-06T06:59:13.615Z,93927.77
2019-05-06T07:01:42.218Z,93929.31
2019-05-06T07:04:11.182Z,93928.88
2019-05-06T07:06:33.529Z,93927.00
2019-05-06T07:09:00.233Z,93926.91
2019-05-06T07:11:26.868Z,93916.19
2019-05-06T07:13:53.517Z,93916.40
2019-05-06T07:16:20.885Z,93921.20
2019-05-06T07:18:46.950Z,93919.25
2019-05-06T07:21:14.078Z,93914.81
2019-05-06T07:23:42.077Z,93922.23
2019-05-06T07:26:06.913Z,93917.33
2019-05-06T07:31:14.937Z,93916.31
2019-05-06T07:33:26.843Z,93921.23
2019-05-06T07:35:53.487Z,93920.61
2019-05-06T07:38:20.140Z,93919.06
2019-05-06T07:40:46.781Z,93909.89
2019-05-06T07:43:13.453Z,93908.70
2019-05-06T07:45:42.276Z,93902.20
2019-05-06T07:48:06.768Z,93898.72
2019-05-06T07:50:33.414Z,93905.01
2019-05-06T07:53:02.231Z,93907.05
2019-05-06T07:55:26.737Z,93902.25
2019-05-06T07:57:53.421Z,93898.19
2019-05-06T08:00:20.060Z,93908.06
2019-05-06T08:02:46.703Z,93907.91
2019-05-06T08:05:13.387Z,93905.02
2019-05-06T08:07:42.121Z,93909.19
2019-05-06T08:10:06.746Z,93910.40
2019-05-06T08:12:33.384Z,93903.92
2019-05-06T08:15:04.448Z,93894.09
2019-05-06T08:17:26.729Z,93888.55
2019-05-06T08:19:53.501Z,93896.02
2019-05-06T08:22:20.181Z,93906.68
2019-05-06T08:24:46.813Z,93909.45
2019-05-06T08:27:13.490Z,93922.69
2019-05-06T08:29:42.329Z,93926.16
2019-05-06T08:32:06.877Z,93934.77
2019-05-06T08:34:34.273Z,93946.59
2019-05-06T08:39:26.951Z,93960.84
2019-05-06T08:41:53.581Z,93962.58
2019-05-06T08:44:22.377Z,93965.39
2019-05-06T08:46:46.873Z,93971.37
2019-05-06T08:49:13.547Z,93991.92
2019-05-06T08:51:42.414Z,94004.49
2019-05-06T08:54:06.856Z,94015.66
2019-05-06T08:56:33.487Z,94014.23
2019-05-06T08:59:00.124Z,94026.45
2019-05-06T09:01:26.806Z,94026.48
2019-05-06T09:04:06.331Z,94026.48
2019-05-06T09:06:29.306Z,94032.73
2019-05-06T09:08:46.739Z,94024.42
2019-05-06T09:11:13.491Z,94021.30
2019-05-06T09:13:40.134Z,94007.67
2019-05-06T09:16:06.775Z,94021.81
2019-05-06T09:18:33.433Z,94014.50
2019-05-06T09:21:00.076Z,94008.50
2019-05-06T09:23:27.657Z,94004.81
2019-05-06T09:25:53.393Z,94004.92
2019-05-06T09:28:20.033Z,94005.75
2019-05-06T09:30:46.684Z,94006.39
2019-05-06T09:33:13.321Z,94012.50
2019-05-06T09:35:42.062Z,94015.20
2019-05-06T09:38:06.649Z,94018.34
2019-05-06T09:40:33.281Z,94016.59
2019-05-06T09:42:59.938Z,94012.16
2019-05-06T09:45:26.580Z,94007.06
2019-05-06T09:47:53.301Z,94008.47
2019-05-06T09:50:19.959Z,94000.55
2019-05-06T09:52:46.599Z,93995.47
2019-05-06T09:55:13.251Z,93996.13
2019-05-06T09:57:39.889Z,93998.91
2019-05-06T10:00:06.584Z,94005.20
2019-05-06T10:02:33.232Z,93991.99
2019-05-06T10:04:59.917Z,93995.05
2019-05-06T10:07:26.560Z,93989.61
2019-05-06T10:09:53.236Z,94000.42
2019-05-06T10:12:19.875Z,93994.06
2019-05-06T10:14:46.554Z,93988.24
2019-05-06T10:17:13.364Z,93983.09
2019-05-06T10:19:39.842Z,93985.55
2019-05-06T10:22:06.522Z,93984.69
2019-05-06T10:24:33.162Z,93979.69
2019-05-06T10:26:59.799Z,93976.00
2019-05-06T10:29:26.430Z,93974.13
2019-05-06T10:31:53.081Z,93971.06
2019-05-06T10:34:22.064Z,93969.97
2019-05-06T10:36:46.412Z,93967.77
2019-05-06T10:39:13.048Z,93966.46
2019-05-06T10:41:42.211Z,93957.68
2019-05-06T10:44:06.412Z,93953.89
2019-05-06T10:46:33.050Z,93950.17
2019-05-06T10:48:59.727Z,93957.04
2019-05-06T10:51:26.337Z,93957.68
2019-05-06T10:53:52.980Z,93954.05
2019-05-06T10:56:19.612Z,93949.62
2019-05-06T10:58:46.292Z,93939.16
2019-05-06T11:01:12.950Z,93942.41
2019-05-06T11:03:41.522Z,93945.83
2019-05-06T11:06:06.241Z,93953.68
2019-05-06T11:08:33.012Z,93952.00
2019-05-06T11:11:14.502Z,93952.64
2019-05-06T11:13:28.255Z,93957.19
2019-05-06T11:15:55.593Z,93967.01
2019-05-06T11:18:23.221Z,93964.34
2019-05-06T11:20:46.576Z,93975.45
2019-05-06T11:23:14.137Z,93977.92
2019-05-06T11:25:39.853Z,93984.58
2019-05-06T11:28:06.508Z,93987.92
2019-05-06T11:30:33.260Z,93991.84
2019-05-06T11:32:59.834Z,93991.95
2019-05-06T11:35:26.515Z,93993.61
2019-05-06T11:37:54.313Z,94001.38
2019-05-06T11:40:19.791Z,93993.03
2019-05-06T11:42:46.467Z,93977.84
2019-05-06T11:45:13.124Z,93965.14
2019-05-06T11:47:41.942Z,93973.66
2019-05-06T11:50:06.420Z,93962.55
2019-05-06T11:52:34.701Z,93952.36
2019-05-06T11:55:02.048Z,93944.30
2019-05-06T11:57:26.455Z,93946.06
2019-05-06T11:59:53.091Z,93946.06
2019-05-06T12:02:19.736Z,93957.44
2019-05-06T12:04:46.421Z,93965.31
2019-05-06T12:07:15.623Z,93960.38
2019-05-06T12:09:39.847Z,93963.70
2019-05-06T12:12:06.540Z,93970.92
2019-05-06T12:17:02.029Z,93977.06
2019-05-06T12:19:26.493Z,93977.23
2019-05-06T12:21:53.129Z,93975.81
2019-05-06T12:24:19.786Z,93970.27
2019-05-06T12:26:46.422Z,93972.22
2019-05-06T12:29:13.102Z,93974.75
2019-05-06T12:31:42.014Z,93980.67
2019-05-06T12:34:06.437Z,93983.98
2019-05-06T12:36:33.153Z,93981.20
2019-05-06T12:38:59.795Z,93981.69
2019-05-06T12:41:26.476Z,93976.27
2019-05-06T12:43:53.107Z,93985.05
2019-05-06T12:46:19.752Z,93991.21
2019-05-06T12:51:13.097Z,93984.67
2019-05-06T12:53:39.781Z,93974.61
2019-05-06T12:56:06.425Z,93975.25
2019-05-06T12:58:33.070Z,93982.09
2019-05-06T13:00:59.701Z,93971.13
2019-05-06T13:03:26.379Z,93973.23
2019-05-06T13:05:53.043Z,93968.80
2019-05-06T13:08:21.204Z,93947.63
2019-05-06T13:10:46.353Z,93948.72
2019-05-06T13:13:13.101Z,93941.00
2019-05-06T13:15:39.856Z,93925.41
2019-05-06T13:18:07.557Z,93919.98
2019-05-06T13:20:34.171Z,93909.08
2019-05-06T13:22:59.787Z,93905.66
2019-05-06T13:25:26.463Z,93908.95
2019-05-06T13:27:53.108Z,93926.16
2019-05-06T13:30:22.538Z,93933.37
2019-05-06T13:32:46.402Z,93931.62
2019-05-06T13:37:39.719Z,93919.58
2019-05-06T13:40:06.444Z,93902.63
2019-05-06T13:42:33.300Z,93900.42
2019-05-06T13:44:59.687Z,93893.28
2019-05-06T13:47:26.327Z,93892.34
2019-05-06T13:49:52.974Z,93903.05
2019-05-06T13:52:19.654Z,93899.73
2019-05-06T13:54:46.342Z,93902.98
2019-05-06T13:57:12.970Z,93900.64
2019-05-06T13:59:39.608Z,93895.20
2019-05-06T14:02:07.854Z,93893.81
2019-05-06T14:04:32.924Z,93884.33
2019-05-06T14:07:02.081Z,93883.84
2019-05-06T14:09:32.032Z,93886.71
2019-05-06T14:11:52.971Z,93885.14
2019-05-06T14:14:19.617Z,93880.44
2019-05-06T14:16:46.275Z,93886.91
2019-05-06T14:19:13.314Z,93893.20
2019-05-06T14:21:39.628Z,93895.99
2019-05-06T14:24:06.336Z,93890.50
2019-05-06T14:26:33.290Z,93891.69
2019-05-06T14:28:59.617Z,93888.83
2019-05-06T14:31:26.274Z,93890.14
2019-05-06T14:33:52.970Z,93885.59
2019-05-06T14:36:19.611Z,93879.30
2019-05-06T14:38:46.323Z,93876.62
2019-05-06T14:41:13.316Z,93880.31
2019-05-06T14:43:39.601Z,93875.05
2019-05-06T14:46:06.251Z,93871.44
2019-05-06T14:48:33.245Z,93870.15
2019-05-06T14:50:59.543Z,93872.66
2019-05-06T14:53:26.180Z,93877.38
2019-05-06T14:55:52.860Z,93876.62
2019-05-06T14:58:19.495Z,93875.08
2019-05-06T15:00:46.171Z,93883.88
2019-05-06T15:03:13.079Z,93887.38
2019-05-06T15:05:39.490Z,93888.95
2019-05-06T15:08:06.128Z,93889.86
2019-05-06T15:10:32.802Z,93897.00
2019-05-06T15:12:59.440Z,93897.91
2019-05-06T15:15:26.171Z,93898.28
2019-05-06T15:20:19.484Z,93905.84
2019-05-06T15:22:46.130Z,93909.58
2019-05-06T15:25:13.096Z,93911.61
2019-05-06T15:27:39.451Z,93913.80
2019-05-06T15:30:06.085Z,93929.46
2019-05-06T15:32:32.888Z,93937.62
2019-05-06T15:34:59.529Z,93942.18
2019-05-06T15:37:26.185Z,93955.38
2019-05-06T15:39:52.836Z,93959.52
2019-05-06T15:42:19.513Z,93964.32
2019-05-06T15:44:46.189Z,93973.55
2019-05-06T15:47:13.316Z,93973.04
2019-05-06T15:49:39.476Z,93979.78
2019-05-06T15:52:06.128Z,93982.38
2019-05-06T15:54:32.763Z,93991.97
2019-05-06T15:56:59.441Z,93997.38
2019-05-06T15:59:26.117Z,93996.94
2019-05-06T16:01:53.260Z,94004.17
2019-05-06T16:06:46.047Z,94015.60
2019-05-06T16:09:14.411Z,94017.33
2019-05-06T16:11:39.337Z,94021.64
2019-05-06T16:14:05.985Z,94030.48
2019-05-06T16:16:33.387Z,94031.65
2019-05-06T16:18:59.359Z,94038.58
2019-05-06T16:21:26.045Z,94045.20
2019-05-06T16:23:54.907Z,94043.97
2019-05-06T16:26:19.436Z,94054.98
2019-05-06T16:28:46.132Z,94061.98
2019-05-06T16:31:13.066Z,94068.95
2019-05-06T16:33:39.498Z,94074.72
2019-05-06T16:36:06.146Z,94074.08
2019-05-06T16:38:32.929Z,94073.52
2019-05-06T16:41:10.368Z,94068.76
2019-05-06T16:43:26.118Z,94070.63
2019-05-06T16:45:53.355Z,94067.41
2019-05-06T16:50:46.103Z,94062.34
2019-05-06T16:53:12.749Z,94057.24
2019-05-06T16:55:39.444Z,94060.88
2019-05-06T16:58:06.086Z,94054.43
2019-05-06T17:00:32.765Z,94056.67
2019-05-06T17:03:00.178Z,94065.03
2019-05-06T17:05:26.095Z,94077.70
2019-05-06T17:07:52.727Z,94081.17
2019-05-06T17:10:22.741Z,94078.29
2019-05-06T17:12:49.048Z,94073.91
2019-05-06T17:15:15.688Z,94079.11
2019-05-06T17:17:46.668Z,94082.91
2019-05-06T17:20:09.000Z,94085.15
2019-05-06T17:22:35.647Z,94092.56
2019-05-06T17:25:02.466Z,94094.80
2019-05-06T17:27:28.978Z,94097.88
2019-05-06T17:29:55.613Z,94099.48
2019-05-06T17:32:22.332Z,94104.48
2019-05-06T17:34:48.894Z,94102.23
2019-05-06T17:37:15.536Z,94091.03
2019-05-06T17:39:42.510Z,94086.16
2019-05-06T17:42:08.876Z,94076.73
2019-05-06T17:44:35.519Z,94074.61
2019-05-06T17:49:28.803Z,94080.20
2019-05-06T17:51:55.480Z,94090.23
2019-05-06T17:54:25.441Z,94086.55
2019-05-06T17:56:48.754Z,94080.80
2019-05-06T17:59:15.484Z,94081.70
2019-05-06T18:01:42.187Z,94068.59
2019-05-06T18:04:08.816Z,94061.25
2019-05-06T18:06:35.452Z,94062.11
2019-05-06T18:09:02.605Z,94076.70
2019-05-06T18:11:28.783Z,94081.39
2019-05-06T18:13:55.436Z,94077.05
2019-05-06T18:16:24.785Z,94080.75
2019-05-06T18:18:52.349Z,94080.33
2019-05-06T18:23:44.712Z,94092.80
2019-05-06T18:26:11.388Z,94092.30
2019-05-06T18:28:38.028Z,94090.34
2019-05-06T18:31:04.673Z,94093.75
2019-05-06T18:33:32.633Z,94098.46
2019-05-06T18:35:57.997Z,94109.25
2019-05-06T18:38:24.642Z,94112.57
2019-05-06T18:40:52.905Z,94113.44
2019-05-06T18:43:17.927Z,94119.42
2019-05-06T18:45:44.555Z,94126.16
2019-05-06T18:48:11.236Z,94122.08
2019-05-06T18:50:37.876Z,94117.28
2019-05-06T18:53:04.520Z,94125.97
2019-05-06T18:57:57.817Z,94120.80
2019-05-06T19:00:24.553Z,94118.30
2019-05-06T19:02:52.288Z,94118.36
2019-05-06T19:05:17.894Z,94115.16
2019-05-06T19:07:46.741Z,94124.64
2019-05-06T19:10:12.857Z,94127.36
2019-05-06T19:12:41.332Z,94126.93
2019-05-06T19:15:04.456Z,94133.05
2019-05-06T19:17:33.428Z,94130.39
2019-05-06T19:19:57.744Z,94142.16
2019-05-06T19:22:24.459Z,94142.22
2019-05-06T19:24:52.099Z,94143.48
2019-05-06T19:27:17.788Z,94149.89
2019-05-06T19:29:44.436Z,94146.63
2019-05-06T19:32:12.312Z,94149.89
2019-05-06T19:34:37.717Z,94161.29
2019-05-06T19:37:04.393Z,94153.99
2019-05-06T19:39:32.937Z,94158.55
2019-05-06T19:41:57.689Z,94165.44
2019-05-06T19:44:24.330Z,94165.77
2019-05-06T19:46:53.098Z,94172.77
2019-05-06T19:49:17.663Z,94167.48
2019-05-06T19:51:44.291Z,94184.11
2019-05-06T19:54:12.605Z,94192.70
2019-05-06T19:56:37.691Z,94192.33
2019-05-06T19:59:05.766Z,94196.99
2019-05-06T20:01:32.301Z,94199.02
2019-05-06T20:03:57.672Z,94199.07
2019-05-06T20:06:24.356Z,94201.89
2019-05-06T20:08:52.881Z,94199.70
2019-05-06T20:11:17.673Z,94203.97
2019-05-06T20:13:44.331Z,94201.45
2019-05-06T20:16:12.467Z,94200.28
2019-05-06T20:18:37.665Z,94195.34
2019-05-06T20:21:04.407Z,94199.19
2019-05-06T20:23:32.797Z,94200.77
2019-05-06T20:25:57.694Z,94200.45
2019-05-06T20:28:24.392Z,94199.27
2019-05-06T20:30:52.892Z,94206.50
2019-05-06T20:33:17.710Z,94197.83
2019-05-06T20:35:44.361Z,94203.10
2019-05-06T20:40:38.555Z,94212.27
2019-05-06T20:43:16.519Z,94211.34
2019-05-06T20:45:35.129Z,94219.65
2019-05-06T20:47:57.600Z,94222.98
2019-05-06T20:50:24.287Z,94226.30
2019-05-06T20:52:52.011Z,94219.77
2019-05-06T20:55:17.646Z,94222.84
2019-05-06T20:57:44.275Z,94222.64
2019-05-06T21:00:12.721Z,94223.36
2019-05-06T21:02:37.611Z,94227.19
2019-05-06T21:05:04.292Z,94228.20
2019-05-06T21:07:32.389Z,94223.96
2019-05-06T21:09:57.584Z,94226.44
2019-05-06T21:12:24.230Z,94224.27
2019-05-06T21:14:50.874Z,94222.66
2019-05-06T21:17:17.582Z,94223.90
2019-05-06T21:19:44.227Z,94227.06
2019-05-06T21:22:13.079Z,94224.27
2019-05-06T21:24:37.553Z,94226.48
2019-05-06T21:27:04.234Z,94230.05
2019-05-06T21:29:32.501Z,94227.92
2019-05-06T21:31:57.548Z,94229.48
2019-05-06T21:34:24.203Z,94233.08
2019-05-06T21:36:53.085Z,94232.63
2019-05-06T21:39:22.338Z,94229.35
2019-05-06T21:41:47.055Z,94232.49
2019-05-06T21:44:13.741Z,94227.92
2019-05-06T21:46:42.689Z,94235.91
2019-05-06T21:51:33.705Z,94234.75
2019-05-06T21:54:02.664Z,94236.34
2019-05-06T21:56:27.002Z,94236.88
2019-05-06T21:58:53.688Z,94238.28
2019-05-06T22:03:46.969Z,94241.55
2019-05-06T22:06:13.629Z,94242.02
2019-05-06T22:08:42.243Z,94246.05
2019-05-06T22:11:06.916Z,94247.48
2019-05-06T22:13:33.570Z,94254.66
2019-05-06T22:16:04.352Z,94251.52
2019-05-06T22:18:26.898Z,94244.64
2019-05-06T22:20:53.535Z,94250.16
2019-05-06T22:25:46.831Z,94257.06
2019-05-06T22:28:13.479Z,94259.77
2019-05-06T22:30:42.472Z,94272.67
2019-05-06T22:33:06.750Z,94267.42
2019-05-06T22:35:33.388Z,94267.36
2019-05-06T22:38:00.078Z,94274.28
2019-05-06T22:40:26.714Z,94275.08
2019-05-06T22:42:53.368Z,94277.41
2019-05-06T22:45:22.093Z,94275.79
2019-05-06T22:47:46.678Z,94277.30
2019-05-06T22:50:13.314Z,94268.17
2019-05-06T22:52:41.951Z,94269.72
2019-05-06T22:55:06.591Z,94275.92
2019-05-06T22:57:33.235Z,94279.79
2019-05-06T22:59:59.920Z,94278.78
2019-05-06T23:02:26.591Z,94289.75
2019-05-06T23:04:53.241Z,94289.25
2019-05-06T23:07:22.419Z,94290.30
2019-05-06T23:12:13.160Z,94302.66
2019-05-06T23:14:41.515Z,94299.48
2019-05-06T23:17:06.518Z,94303.27
2019-05-06T23:19:33.176Z,94299.78
2019-05-06T23:21:59.855Z,94304.27
2019-05-06T23:24:26.568Z,94302.17
2019-05-06T23:26:54.826Z,94308.08
2019-05-06T23:29:19.906Z,94313.66
2019-05-06T23:31:46.551Z,94319.30
2019-05-06T23:34:13.188Z,94323.55
2019-05-06T23:36:41.754Z,94325.80
2019-05-06T23:39:06.511Z,94324.34
2019-05-06T23:41:33.157Z,94327.73
2019-05-06T23:43:59.796Z,94334.23
2019-05-06T23:46:26.427Z,94335.44
2019-05-06T23:48:53.068Z,94333.72
2019-05-06T23:51:22.206Z,94335.53
2019-05-06T23:53:46.367Z,94337.33
2019-05-06T23:58:39.664Z,94341.39
